Time;durP1;ratioP1;P1;durP2;ratioP2;P2;SDS_P1;SDS_P2;PMS_P1;PMS_P2;Temp;Humidity;BMP_temperature;BMP_pressure;BME280_temperature;BME280_humidity;BME280_pressure;Samples;Min_cycle;Max_cycle;Signal;HPM_P1;HPM_P2
2023/08/21 00:01:52;;;;;;;22.98;20.70;;;;;;;24.36;100.00;100079.34;4992920;28;20038;-90
2023/08/21 00:04:17;;;;;;;23.88;21.60;;;;;;;24.26;100.00;100070.56;4976423;28;20056;-90
2023/08/21 00:06:43;;;;;;;24.15;21.85;;;;;;;24.31;100.00;100086.09;4976782;28;20034;-90
2023/08/21 00:09:08;;;;;;;24.95;22.65;;;;;;;24.28;100.00;100089.06;4976556;28;20184;-90
2023/08/21 00:11:35;;;;;;;27.13;20.27;;;;;;;24.30;100.00;100081.75;4976705;28;20089;-90
2023/08/21 00:14:00;;;;;;;26.13;23.63;;;;;;;24.27;100.00;100077.59;4976391;28;20125;-90
2023/08/21 00:16:26;;;;;;;23.65;21.33;;;;;;;24.24;100.00;100085.88;4976551;28;20133;-90
2023/08/21 00:18:52;;;;;;;22.05;19.95;;;;;;;24.24;100.00;100067.22;4976599;28;20026;-90
2023/08/21 00:21:19;;;;;;;24.42;22.13;;;;;;;24.21;100.00;100058.69;4976384;28;20041;-90
2023/08/21 00:23:45;;;;;;;24.08;21.75;;;;;;;24.12;100.00;100049.78;4976529;28;20097;-90
2023/08/21 00:26:11;;;;;;;23.67;21.15;;;;;;;24.13;100.00;100062.09;4976470;28;20425;-90
2023/08/21 00:28:37;;;;;;;24.70;22.17;;;;;;;24.13;100.00;100064.75;4976352;28;20096;-90
2023/08/21 00:31:03;;;;;;;25.60;23.20;;;;;;;24.12;100.00;100063.94;4976003;28;20030;-90
2023/08/21 00:33:33;;;;;;;27.52;24.60;;;;;;;24.03;100.00;100059.50;5006990;28;20508;-90
2023/08/21 00:35:59;;;;;;;25.27;22.85;;;;;;;23.99;100.00;100051.97;5012003;28;20118;-90
2023/08/21 00:38:26;;;;;;;26.30;23.50;;;;;;;23.99;100.00;100057.28;4995259;28;20069;-90
2023/08/21 00:40:51;;;;;;;25.25;22.77;;;;;;;23.93;100.00;100053.38;4995554;28;20065;-90
2023/08/21 00:43:17;;;;;;;28.38;25.60;;;;;;;23.88;100.00;100045.84;4995184;28;20557;-90
2023/08/21 00:45:44;;;;;;;25.90;23.35;;;;;;;23.86;100.00;100042.50;4995615;28;20531;-90
2023/08/21 00:48:11;;;;;;;28.02;25.42;;;;;;;23.87;100.00;100044.16;4995455;28;20374;-90
2023/08/21 00:50:37;;;;;;;28.17;25.30;;;;;;;23.80;100.00;100040.41;5011880;28;20034;-90
2023/08/21 00:53:05;;;;;;;27.85;25.08;;;;;;;23.71;100.00;100035.16;5011564;28;20081;-90
2023/08/21 00:55:31;;;;;;;28.70;25.80;;;;;;;23.70;100.00;100031.66;4995321;28;20048;-90
2023/08/21 00:57:58;;;;;;;28.63;25.50;;;;;;;23.69;100.00;100037.97;4995285;28;20037;-90
2023/08/21 01:00:25;;;;;;;27.42;24.52;;;;;;;23.67;100.00;100039.91;4994965;28;20034;-90
2023/08/21 01:02:50;;;;;;;29.70;26.67;;;;;;;23.63;100.00;100043.81;4994869;28;20140;-90
2023/08/21 01:05:18;;;;;;;29.95;27.10;;;;;;;23.56;100.00;100045.41;4994928;28;20474;-90
2023/08/21 01:08:00;;;;;;;30.20;27.05;;;;;;;23.57;100.00;100037.25;5011907;28;20037;-90
2023/08/21 01:10:33;;;;;;;26.02;23.48;;;;;;;23.61;100.00;100043.97;5015701;28;20032;-90
2023/08/21 01:13:11;;;;;;;27.42;24.58;;;;;;;23.61;100.00;100045.78;5015935;28;20382;-90
2023/08/21 01:15:39;;;;;;;28.63;25.85;;;;;;;23.62;100.00;100056.28;5015900;28;20107;-90
2023/08/21 01:18:06;;;;;;;30.42;27.42;;;;;;;23.62;100.00;100058.09;5015681;28;20049;-90
2023/08/21 01:20:32;;;;;;;26.25;23.63;;;;;;;23.60;100.00;100052.09;5015821;28;20038;-90
2023/08/21 01:23:04;;;;;;;26.73;24.10;;;;;;;23.51;100.00;100045.84;5015764;28;20033;-90
2023/08/21 01:25:29;;;;;;;27.70;25.00;;;;;;;23.55;100.00;100057.00;5015733;28;20052;-90
2023/08/21 01:27:55;;;;;;;25.83;23.25;;;;;;;23.55;100.00;100043.69;5015644;28;20021;-91
2023/08/21 01:30:20;;;;;;;28.52;25.73;;;;;;;23.55;100.00;100047.19;5015240;28;20033;-90
2023/08/21 01:32:51;;;;;;;26.50;23.92;;;;;;;23.56;100.00;100054.22;5015693;28;20031;-90
2023/08/21 01:35:17;;;;;;;27.88;25.25;;;;;;;23.54;100.00;100053.50;5015625;28;20056;-90
2023/08/21 01:37:44;;;;;;;26.05;23.55;;;;;;;23.50;100.00;100044.13;5015460;28;20473;-91
2023/08/21 01:40:10;;;;;;;27.00;24.35;;;;;;;23.53;100.00;100043.84;5014994;28;20034;-90
2023/08/21 01:42:35;;;;;;;27.17;24.58;;;;;;;23.55;100.00;100047.19;5015290;28;20037;-90
2023/08/21 01:45:00;;;;;;;26.65;24.02;;;;;;;23.55;100.00;100046.34;5015205;28;20087;-90
2023/08/21 01:47:26;;;;;;;27.60;24.90;;;;;;;23.52;100.00;100050.16;5015208;28;20152;-90
2023/08/21 01:49:52;;;;;;;29.58;26.42;;;;;;;23.50;100.00;100059.25;5015316;28;20115;-90
2023/08/21 01:52:20;;;;;;;28.88;25.95;;;;;;;23.48;100.00;100059.41;5014973;28;20029;-90
2023/08/21 01:54:47;;;;;;;26.95;24.25;;;;;;;23.47;100.00;100079.00;5015025;28;20116;-90
2023/08/21 01:57:13;;;;;;;26.50;23.80;;;;;;;23.39;100.00;100074.41;5032507;28;20095;-90
2023/08/21 01:59:39;;;;;;;24.33;21.92;;;;;;;23.48;100.00;100080.69;5014846;28;20029;-90
2023/08/21 02:02:04;;;;;;;25.40;22.98;;;;;;;23.54;100.00;100124.47;5015266;28;20120;-90
2023/08/21 02:04:29;;;;;;;28.05;25.30;;;;;;;23.53;100.00;100128.94;5014902;28;20143;-91
2023/08/21 02:06:55;;;;;;;27.80;25.20;;;;;;;23.39;100.00;100118.75;5015054;28;20033;-90
2023/08/21 02:09:20;;;;;;;28.35;25.48;;;;;;;23.31;100.00;100115.97;5014627;28;20036;-90
2023/08/21 02:11:46;;;;;;;26.70;24.10;;;;;;;23.36;100.00;100135.00;5014817;28;20029;-90
2023/08/21 02:14:11;;;;;;;27.00;24.48;;;;;;;23.30;100.00;100123.13;5014437;28;20026;-90
2023/08/21 02:16:36;;;;;;;25.98;23.67;;;;;;;23.27;100.00;100110.09;5014915;28;20125;-90
2023/08/21 02:19:02;;;;;;;28.40;25.67;;;;;;;23.24;100.00;100115.69;5014704;28;20029;-90
2023/08/21 02:21:27;;;;;;;24.77;22.35;;;;;;;23.21;100.00;100121.28;5013675;28;20051;-90
2023/08/21 02:23:52;;;;;;;23.08;20.85;;;;;;;23.18;100.00;100134.03;5014696;28;20060;-90
2023/08/21 02:26:19;;;;;;;25.58;22.88;;;;;;;23.17;100.00;100125.19;5014362;28;20029;-90
2023/08/21 02:28:45;;;;;;;22.13;19.83;;;;;;;23.03;100.00;100123.81;5032192;28;20033;-89
2023/08/21 02:31:11;;;;;;;23.05;20.60;;;;;;;22.86;100.00;100121.81;5032146;28;20423;-90
2023/08/21 02:33:36;;;;;;;22.85;20.67;;;;;;;22.95;100.00;100138.78;5014462;28;20459;-89
2023/08/21 02:36:03;;;;;;;24.52;21.73;;;;;;;22.93;100.00;100146.06;5014516;28;20033;-89
2023/08/21 02:38:29;;;;;;;21.25;19.15;;;;;;;22.86;100.00;100146.56;5014184;28;20095;-89
2023/08/21 02:40:54;;;;;;;21.33;18.85;;;;;;;22.94;100.00;100158.34;5014377;28;20427;-89
2023/08/21 02:43:19;;;;;;;20.95;17.98;;;;;;;22.95;100.00;100154.72;5013991;28;20026;-89
2023/08/21 02:45:45;;;;;;;22.35;20.02;;;;;;;22.90;100.00;100152.47;5014434;28;20024;-90
2023/08/21 02:48:10;;;;;;;20.98;18.92;;;;;;;22.94;100.00;100167.16;5014174;28;20030;-89
2023/08/21 02:50:36;;;;;;;21.73;19.27;;;;;;;22.90;100.00;100155.97;5014404;28;20358;-89
2023/08/21 02:53:01;;;;;;;23.30;21.00;;;;;;;22.86;100.00;100138.59;5031952;28;20389;-90
2023/08/21 02:55:26;;;;;;;26.08;23.48;;;;;;;22.76;100.00;100127.13;5014013;28;20060;-89
2023/08/21 02:57:52;;;;;;;27.40;24.60;;;;;;;22.66;100.00;100128.91;5014042;28;20034;-89
2023/08/21 03:00:17;;;;;;;25.00;22.40;;;;;;;22.72;100.00;100148.78;5014042;28;20094;-89
2023/08/21 03:02:43;;;;;;;23.27;20.83;;;;;;;22.75;100.00;100157.28;5014070;28;20110;-89
2023/08/21 03:05:10;;;;;;;25.42;22.77;;;;;;;22.75;100.00;100167.06;5014246;28;20025;-90
2023/08/21 03:07:35;;;;;;;23.58;21.27;;;;;;;22.78;100.00;100172.13;5014132;28;20040;-89
2023/08/21 03:10:02;;;;;;;25.45;22.15;;;;;;;22.87;100.00;100174.78;5009470;28;20389;-89
2023/08/21 03:12:27;;;;;;;25.00;22.60;;;;;;;22.90;100.00;100163.09;4992877;28;20041;-89
2023/08/21 03:14:53;;;;;;;23.88;21.45;;;;;;;22.91;100.00;100156.78;4993135;28;20042;-89
2023/08/21 03:17:18;;;;;;;24.92;22.35;;;;;;;22.94;100.00;100140.59;4992860;28;20034;-90
2023/08/21 03:19:43;;;;;;;26.70;24.10;;;;;;;22.98;100.00;100154.44;4993053;28;20161;-90
2023/08/21 03:22:09;;;;;;;26.20;23.42;;;;;;;22.89;100.00;100148.09;4993245;28;20491;-90
2023/08/21 03:24:34;;;;;;;26.48;23.98;;;;;;;22.89;100.00;100156.06;4992897;28;20692;-89
2023/08/21 03:27:01;;;;;;;27.02;22.83;;;;;;;22.80;100.00;100151.59;4993088;28;20073;-90
2023/08/21 03:29:27;;;;;;;25.60;22.95;;;;;;;22.80;100.00;100167.53;4992748;28;20472;-89
2023/08/21 03:31:54;;;;;;;23.90;21.38;;;;;;;22.74;100.00;100163.59;5011035;28;20034;-89
2023/08/21 03:34:20;;;;;;;22.35;20.02;;;;;;;22.64;100.00;100165.41;4996637;28;20129;-90
2023/08/21 03:36:45;;;;;;;18.67;16.83;;;;;;;22.47;100.00;100155.44;4996757;28;20045;-89
2023/08/21 03:39:10;;;;;;;16.55;14.88;;;;;;;22.28;100.00;100165.00;4996706;28;20461;-89
2023/08/21 03:41:36;;;;;;;16.48;14.30;;;;;;;22.12;100.00;100167.25;5011955;28;20124;-89
2023/08/21 03:44:01;;;;;;;15.00;13.45;;;;;;;21.98;100.00;100164.97;5017784;28;20029;-89
2023/08/21 03:46:26;;;;;;;13.18;11.88;;;;;;;21.74;100.00;100152.00;5017439;28;20029;-89
2023/08/21 03:48:52;;;;;;;13.52;12.13;;;;;;;21.58;100.00;100166.56;5017545;28;20025;-89
2023/08/21 03:51:17;;;;;;;13.82;11.55;;;;;;;21.42;100.00;100163.53;5035283;28;20064;-89
2023/08/21 03:53:43;;;;;;;13.85;12.35;;;;;;;21.36;100.00;100156.06;5017316;28;20116;-89
2023/08/21 03:56:08;;;;;;;13.10;11.70;;;;;;;21.26;100.00;100152.47;5035026;28;20099;-89
2023/08/21 03:58:35;;;;;;;13.50;12.05;;;;;;;21.18;100.00;100161.91;4992780;28;20035;-89
2023/08/21 04:01:00;;;;;;;13.45;11.00;;;;;;;21.06;100.00;100156.78;4993593;28;20050;-89
2023/08/21 04:03:25;;;;;;;12.20;10.93;;;;;;;20.98;100.00;100157.41;4976347;28;20225;-88
2023/08/21 04:05:54;;;;;;;15.30;10.60;;;;;;;20.88;100.00;100161.78;4976839;28;20109;-89
2023/08/21 04:08:19;;;;;;;12.65;11.15;;;;;;;20.79;100.00;100166.00;4976443;28;20034;-89
2023/08/21 04:10:45;;;;;;;10.48;9.38;;;;;;;20.80;100.00;100183.56;4976653;28;20129;-89
2023/08/21 04:13:10;;;;;;;10.52;9.52;;;;;;;20.80;100.00;100195.97;4992948;28;20030;-89
2023/08/21 04:15:36;;;;;;;11.55;10.40;;;;;;;20.73;100.00;100198.28;4976369;28;20041;-89
2023/08/21 04:18:01;;;;;;;10.80;9.70;;;;;;;20.73;100.00;100197.41;4976511;28;20086;-89
2023/08/21 04:20:27;;;;;;;12.18;10.05;;;;;;;20.73;100.00;100187.69;4992582;28;20041;-89
2023/08/21 04:22:52;;;;;;;11.15;9.90;;;;;;;20.63;100.00;100181.44;4976522;28;20044;-89
2023/08/21 04:25:17;;;;;;;11.63;10.52;;;;;;;20.59;100.00;100198.53;4992465;28;20030;-89
2023/08/21 04:27:43;;;;;;;13.18;10.93;;;;;;;20.49;100.00;100190.50;4976557;28;20042;-89
2023/08/21 04:30:09;;;;;;;11.63;10.52;;;;;;;20.42;100.00;100195.38;4976353;28;20229;-89
2023/08/21 04:32:35;;;;;;;10.32;9.43;;;;;;;20.40;100.00;100197.31;4976024;28;20093;-89
2023/08/21 04:35:00;;;;;;;10.63;9.30;;;;;;;20.31;100.00;100187.47;4979998;28;20429;-89
2023/08/21 04:37:26;;;;;;;10.00;9.00;;;;;;;20.21;100.00;100185.66;5016439;28;20033;-89
2023/08/21 04:39:52;;;;;;;9.80;8.60;;;;;;;20.12;100.00;100182.75;5016752;28;20021;-89
2023/08/21 04:42:17;;;;;;;10.05;8.90;;;;;;;20.08;100.00;100199.00;5016534;28;20401;-89
2023/08/21 04:44:42;;;;;;;8.95;8.15;;;;;;;20.02;100.00;100180.97;5015571;28;20025;-89
2023/08/21 04:47:26;;;;;;;11.35;8.80;;;;;;;19.96;100.00;100179.63;5016458;28;20373;-89
2023/08/21 04:49:52;;;;;;;9.88;8.85;;;;;;;19.91;100.00;100171.22;5016407;28;20485;-89
2023/08/21 04:52:17;;;;;;;13.65;9.10;;;;;;;19.92;100.00;100181.66;5016027;28;20539;-90
2023/08/21 04:54:43;;;;;;;10.57;8.40;;;;;;;19.90;100.00;100178.31;5016086;28;20033;-89
2023/08/21 04:57:08;;;;;;;12.63;9.23;;;;;;;19.88;100.00;100184.66;5016385;28;20397;-89
2023/08/21 04:59:34;;;;;;;10.23;8.82;;;;;;;19.76;100.00;100170.56;5015984;28;20079;-89
2023/08/21 05:02:00;;;;;;;9.35;8.45;;;;;;;19.84;100.00;100177.91;5016082;28;20065;-89
2023/08/21 05:04:25;;;;;;;10.55;9.02;;;;;;;19.79;100.00;100175.63;5015636;28;20085;-89
2023/08/21 05:06:51;;;;;;;10.43;9.32;;;;;;;19.83;100.00;100186.81;5015989;28;20055;-89
2023/08/21 05:09:16;;;;;;;10.75;9.50;;;;;;;19.84;100.00;100180.56;5015889;28;20052;-89
2023/08/21 05:11:41;;;;;;;10.25;9.15;;;;;;;19.82;100.00;100191.25;5015849;28;20056;-89
2023/08/21 05:14:07;;;;;;;13.55;9.82;;;;;;;19.88;100.00;100196.06;5015985;28;20040;-89
2023/08/21 05:16:32;;;;;;;9.07;8.23;;;;;;;19.89;100.00;100189.84;5015659;28;20022;-89
2023/08/21 05:18:58;;;;;;;10.45;8.35;;;;;;;19.91;100.00;100184.44;5015751;28;20087;-89
2023/08/21 05:21:23;;;;;;;9.95;8.60;;;;;;;19.96;100.00;100195.47;5015570;28;20022;-89
2023/08/21 05:23:48;;;;;;;10.18;7.97;;;;;;;19.92;100.00;100188.75;5015589;28;20116;-89
2023/08/21 05:26:14;;;;;;;9.82;8.38;;;;;;;19.94;100.00;100194.78;5015847;28;20028;-89
2023/08/21 05:28:39;;;;;;;11.80;7.95;;;;;;;19.99;100.00;100197.06;5015547;28;20041;-90
2023/08/21 05:31:04;;;;;;;11.13;7.95;;;;;;;20.00;100.00;100191.66;5015660;28;20443;-89
2023/08/21 05:33:30;;;;;;;7.75;6.95;;;;;;;20.06;100.00;100182.41;4991042;28;20052;-89
2023/08/21 05:35:56;;;;;;;8.68;7.75;;;;;;;20.04;100.00;100171.94;4975159;28;20129;-89
2023/08/21 05:38:22;;;;;;;8.25;7.13;;;;;;;20.24;100.00;100183.63;4974746;28;20101;-89
2023/08/21 05:40:48;;;;;;;8.88;7.97;;;;;;;20.22;100.00;100158.22;4975092;28;20022;-90
2023/08/21 05:43:13;;;;;;;10.55;7.53;;;;;;;20.48;100.00;100183.53;4974964;28;20505;-89
2023/08/21 05:45:39;;;;;;;8.68;7.70;;;;;;;20.81;100.00;100185.25;4974768;28;20034;-89
2023/08/21 05:48:04;;;;;;;9.30;6.40;;;;;;;20.99;100.00;100177.63;4991206;28;20046;-89
2023/08/21 05:50:30;;;;;;;8.15;7.35;;;;;;;21.03;100.00;100163.19;4991295;28;20037;-89
2023/08/21 05:52:57;;;;;;;7.95;6.85;;;;;;;21.20;100.00;100164.44;4974527;28;20092;-88
2023/08/21 05:55:23;;;;;;;7.60;6.25;;;;;;;21.43;100.00;100157.25;4971125;28;20049;-89
2023/08/21 05:57:48;;;;;;;7.78;6.75;;;;;;;21.53;100.00;100152.00;4971653;28;20039;-88
2023/08/21 06:00:14;;;;;;;6.90;6.18;;;;;;;21.79;100.00;100163.91;4971518;28;20035;-89
2023/08/21 06:02:41;;;;;;;7.13;6.43;;;;;;;21.89;100.00;100175.41;4971026;28;20390;-89
2023/08/21 06:05:07;;;;;;;7.15;6.45;;;;;;;21.96;100.00;100173.06;5001231;28;20049;-89
2023/08/21 06:07:32;;;;;;;8.20;6.10;;;;;;;22.11;100.00;100181.50;5010098;28;20034;-89
2023/08/21 06:09:58;;;;;;;6.82;5.70;;;;;;;22.11;100.00;100187.66;4993950;28;20034;-89
2023/08/21 06:12:23;;;;;;;5.90;5.30;;;;;;;22.14;100.00;100189.25;5010085;28;20544;-89
2023/08/21 06:14:48;;;;;;;10.18;5.20;;;;;;;22.10;100.00;100195.75;4993952;28;20038;-88
2023/08/21 06:17:14;;;;;;;6.05;5.05;;;;;;;22.11;100.00;100181.50;4951893;29;20066;-88
2023/08/21 06:19:39;;;;;;;10.20;5.43;;;;;;;21.99;100.00;100183.41;4935546;29;20057;-89
2023/08/21 06:22:05;;;;;;;5.07;4.57;;;;;;;22.11;99.74;100181.50;4951738;28;20105;-89
2023/08/21 06:24:30;;;;;;;5.25;4.35;;;;;;;22.22;98.38;100175.31;4951684;29;20027;-88
2023/08/21 06:26:55;;;;;;;8.07;4.60;;;;;;;22.44;97.84;100188.38;4965894;28;20054;-89
2023/08/21 06:29:21;;;;;;;5.65;4.45;;;;;;;22.52;97.02;100172.63;4954973;28;20473;-88
2023/08/21 06:31:46;;;;;;;4.60;4.10;;;;;;;22.58;96.79;100181.84;4954701;28;20333;-89
2023/08/21 06:34:12;;;;;;;5.68;4.38;;;;;;;22.59;96.55;100184.41;4970918;28;20089;-89
2023/08/21 06:36:37;;;;;;;5.72;4.55;;;;;;;22.57;97.70;100190.81;4970639;28;20181;-89
2023/08/21 06:39:03;;;;;;;7.43;4.28;;;;;;;22.45;96.77;100199.84;4954711;28;20496;-89
2023/08/21 06:41:29;;;;;;;4.60;4.20;;;;;;;22.10;97.77;100180.66;4954573;28;20050;-89
2023/08/21 06:43:54;;;;;;;4.65;4.25;;;;;;;22.27;97.93;100221.69;4954928;28;20031;-89
2023/08/21 06:46:19;;;;;;;5.15;4.10;;;;;;;22.24;99.45;100221.13;4954710;28;20034;-89
2023/08/21 06:48:45;;;;;;;4.72;4.20;;;;;;;22.27;100.00;100236.78;4954405;28;20049;-89
2023/08/21 06:51:11;;;;;;;5.40;4.38;;;;;;;22.16;97.08;100237.69;4954595;28;20105;-89
2023/08/21 06:53:37;;;;;;;7.63;4.18;;;;;;;22.12;98.10;100249.50;4974420;28;20027;-89
2023/08/21 06:56:02;;;;;;;4.32;3.95;;;;;;;22.07;98.56;100249.06;5032349;28;20043;-89
2023/08/21 06:58:28;;;;;;;5.63;3.95;;;;;;;22.08;98.58;100258.69;5013942;28;20056;-89
2023/08/21 07:00:54;;;;;;;5.57;3.88;;;;;;;22.14;99.64;100263.53;5014341;28;20117;-89
2023/08/21 07:03:20;;;;;;;4.65;3.90;;;;;;;22.12;100.00;100261.03;5013966;28;20084;-89
2023/08/21 07:05:58;;;;;;;6.72;4.72;;;;;;;22.11;100.00;100264.59;5032024;28;20457;-88
2023/08/21 07:08:24;;;;;;;5.78;4.00;;;;;;;22.12;100.00;100273.38;5020644;28;20029;-89
2023/08/21 07:10:50;;;;;;;5.10;3.90;;;;;;;22.15;100.00;100287.25;5020531;28;20033;-89
2023/08/21 07:13:16;;;;;;;6.03;4.13;;;;;;;22.08;100.00;100277.25;5020678;28;20127;-89
2023/08/21 07:15:41;;;;;;;4.60;4.15;;;;;;;22.03;100.00;100272.34;5038907;28;20110;-89
2023/08/21 07:18:07;;;;;;;6.03;5.28;;;;;;;21.99;100.00;100262.97;5020538;28;20064;-89
2023/08/21 07:20:33;;;;;;;5.97;5.15;;;;;;;21.87;100.00;100258.72;5020283;28;20037;-90
2023/08/21 07:22:58;;;;;;;9.77;5.95;;;;;;;21.82;100.00;100271.50;5020663;28;20033;-88
2023/08/21 07:25:25;;;;;;;5.70;5.07;;;;;;;21.84;100.00;100269.59;5020654;28;20120;-89
2023/08/21 07:27:53;;;;;;;6.00;4.28;;;;;;;21.86;100.00;100263.16;5020271;28;20045;-89
2023/08/21 07:30:19;;;;;;;5.75;5.07;;;;;;;21.77;100.00;100256.00;5020491;28;20029;-89
2023/08/21 07:32:44;;;;;;;6.53;4.75;;;;;;;21.67;100.00;100253.28;5020094;28;20427;-89
2023/08/21 07:35:10;;;;;;;6.03;5.10;;;;;;;21.69;100.00;100263.72;5020603;28;20032;-89
2023/08/21 07:37:36;;;;;;;5.40;4.38;;;;;;;21.58;100.00;100221.41;5019843;28;20068;-89
2023/08/21 07:40:01;;;;;;;7.55;5.32;;;;;;;21.93;100.00;100264.34;5043889;28;20041;-90
2023/08/21 07:42:27;;;;;;;6.55;5.82;;;;;;;22.07;100.00;100255.19;5019271;28;20043;-90
2023/08/21 07:44:52;;;;;;;6.13;5.53;;;;;;;22.04;100.00;100244.03;5018660;28;20028;-89
2023/08/21 07:47:17;;;;;;;7.35;6.03;;;;;;;22.02;100.00;100257.41;5019214;28;20117;-89
2023/08/21 07:49:43;;;;;;;5.88;5.38;;;;;;;22.41;100.00;100250.53;5019935;28;20415;-89
2023/08/21 07:52:08;;;;;;;6.30;5.60;;;;;;;24.03;100.00;100251.09;5020459;28;20649;-88
2023/08/21 07:54:33;;;;;;;5.65;4.78;;;;;;;26.04;99.42;100253.72;5019822;28;20017;-89
2023/08/21 07:56:59;;;;;;;5.10;4.47;;;;;;;27.46;89.05;100245.09;5037656;28;20038;-89
2023/08/21 07:59:25;;;;;;;5.03;4.60;;;;;;;28.11;87.25;100242.44;5037533;28;20108;-89
2023/08/21 08:01:50;;;;;;;6.15;4.57;;;;;;;27.85;83.92;100239.94;5019467;28;20083;-90
2023/08/21 08:04:16;;;;;;;5.10;4.60;;;;;;;27.30;85.82;100252.09;5019641;28;20507;-90
2023/08/21 08:06:41;;;;;;;4.25;3.90;;;;;;;26.74;87.97;100250.09;5019617;28;20025;-89
2023/08/21 08:09:07;;;;;;;5.15;4.05;;;;;;;26.12;89.53;100253.78;5020099;28;20059;-89
2023/08/21 08:11:33;;;;;;;4.90;4.05;;;;;;;25.90;89.46;100259.59;5019893;28;20512;-89
2023/08/21 08:13:58;;;;;;;4.80;3.80;;;;;;;25.47;88.43;100261.22;5020072;28;20047;-90
2023/08/21 08:16:24;;;;;;;4.55;4.00;;;;;;;24.87;88.58;100259.06;5020013;28;20033;-89
2023/08/21 08:18:49;;;;;;;6.32;3.78;;;;;;;24.45;91.56;100272.00;5017293;28;20029;-89
2023/08/21 08:21:15;;;;;;;4.53;3.70;;;;;;;24.15;92.14;100260.59;5017036;28;20032;-89
2023/08/21 08:23:40;;;;;;;6.13;3.95;;;;;;;23.90;92.57;100256.72;5016736;28;20021;-89
2023/08/21 08:26:05;;;;;;;5.30;3.33;;;;;;;23.79;92.15;100261.34;5016874;28;20124;-89
2023/08/21 08:28:31;;;;;;;3.45;3.15;;;;;;;23.69;92.27;100260.53;5016488;28;20025;-90
2023/08/21 08:30:57;;;;;;;6.18;3.70;;;;;;;23.62;93.81;100258.38;5016826;28;20022;-89
2023/08/21 08:33:23;;;;;;;4.03;3.60;;;;;;;23.37;94.33;100221.72;5016775;28;20033;-90
2023/08/21 08:35:48;;;;;;;5.75;3.85;;;;;;;23.64;94.58;100256.44;5034444;28;20037;-90
2023/08/21 08:38:14;;;;;;;3.97;3.38;;;;;;;23.73;91.93;100252.13;5016490;28;20034;-89
2023/08/21 08:40:44;;;;;;;6.80;3.28;;;;;;;23.56;89.49;100234.19;5016330;28;20120;-90
2023/08/21 08:43:12;;;;;;;3.30;2.92;;;;;;;23.71;93.11;100246.09;4972802;28;20039;-89
2023/08/21 08:45:38;;;;;;;4.63;3.15;;;;;;;23.97;89.22;100254.31;4956529;28;20072;-89
2023/08/21 08:48:04;;;;;;;3.78;3.20;;;;;;;24.07;87.53;100247.16;4972937;28;20082;-90
2023/08/21 08:50:31;;;;;;;6.13;3.90;;;;;;;24.26;87.64;100262.22;4956751;28;20030;-89
2023/08/21 08:52:58;;;;;;;4.97;3.22;;;;;;;24.47;88.77;100269.19;4972781;28;20455;-89
2023/08/21 08:55:24;;;;;;;3.25;2.95;;;;;;;24.72;89.71;100267.69;4972769;28;20390;-89
2023/08/21 08:57:49;;;;;;;3.97;3.10;;;;;;;24.93;84.88;100281.59;4956372;28;20046;-90
2023/08/21 09:00:15;;;;;;;4.22;3.10;;;;;;;24.87;81.92;100269.72;4956481;28;20031;-89
2023/08/21 09:02:41;;;;;;;5.18;2.40;;;;;;;24.67;81.51;100272.63;4933612;29;20507;-89
2023/08/21 09:05:08;;;;;;;3.92;2.90;;;;;;;24.52;82.15;100264.25;4918346;29;20040;-89
2023/08/21 09:07:33;;;;;;;3.85;3.20;;;;;;;24.72;83.32;100273.84;4933775;29;20043;-89
2023/08/21 09:10:00;;;;;;;3.13;2.83;;;;;;;24.86;81.84;100265.38;4918166;29;20042;-89
2023/08/21 09:12:25;;;;;;;4.05;3.17;;;;;;;24.87;83.26;100259.06;4950073;29;20042;-89
2023/08/21 09:14:50;;;;;;;2.80;2.33;;;;;;;24.97;84.18;100260.84;4967057;28;20489;-89
2023/08/21 09:17:16;;;;;;;2.75;2.55;;;;;;;25.04;84.63;100252.09;4975560;28;20483;-89
2023/08/21 09:19:42;;;;;;;6.05;2.75;;;;;;;25.01;81.89;100248.88;4975182;28;20541;-89
2023/08/21 09:22:16;;;;;;;3.92;2.90;;;;;;;24.84;83.24;100229.22;4975354;28;20041;-89
2023/08/21 09:25:06;;;;;;;3.83;2.75;;;;;;;24.93;84.13;100232.81;4975195;28;20065;-89
2023/08/21 09:27:33;;;;;;;3.33;2.70;;;;;;;24.97;79.34;100253.66;4975331;28;20049;-89
2023/08/21 09:30:00;;;;;;;3.45;3.15;;;;;;;24.94;82.09;100245.97;4974718;28;20125;-89
2023/08/21 09:32:25;;;;;;;3.17;2.80;;;;;;;25.04;83.50;100246.75;4975159;28;20034;-89
2023/08/21 09:34:50;;;;;;;5.80;3.05;;;;;;;25.30;84.49;100249.56;5014409;28;20033;-90
2023/08/21 09:37:17;;;;;;;3.70;3.13;;;;;;;25.73;84.97;100249.75;5015474;28;20029;-89
2023/08/21 09:39:42;;;;;;;3.22;2.92;;;;;;;26.08;82.34;100251.53;5013480;28;20152;-89
2023/08/21 09:42:08;;;;;;;3.53;3.22;;;;;;;26.17;80.97;100253.28;5014508;28;20120;-90
2023/08/21 09:44:42;;;;;;;3.45;3.15;;;;;;;26.15;78.90;100246.44;5015290;28;20104;-90
2023/08/21 09:47:09;;;;;;;3.03;2.83;;;;;;;26.05;77.36;100225.19;5015252;28;20034;-89
2023/08/21 09:49:36;;;;;;;3.42;3.15;;;;;;;26.14;77.81;100245.59;5015164;28;20481;-90
2023/08/21 09:52:04;;;;;;;3.95;2.88;;;;;;;26.25;79.47;100245.34;5015275;28;20431;-90
2023/08/21 09:54:31;;;;;;;2.55;2.35;;;;;;;26.35;79.11;100245.22;5014908;28;20472;-89
2023/08/21 09:57:01;;;;;;;3.13;2.80;;;;;;;26.51;79.49;100247.16;5014999;28;20025;-90
2023/08/21 09:59:27;;;;;;;3.53;2.90;;;;;;;26.73;80.73;100243.09;5015080;28;20385;-90
2023/08/21 10:01:52;;;;;;;3.28;2.97;;;;;;;26.92;78.00;100245.47;5032429;28;20488;-90
2023/08/21 10:04:20;;;;;;;3.50;3.20;;;;;;;26.97;77.04;100247.66;5014803;28;20050;-90
2023/08/21 10:06:47;;;;;;;3.55;2.85;;;;;;;27.06;74.45;100247.53;5032467;28;20049;-90
2023/08/21 10:09:14;;;;;;;4.30;3.35;;;;;;;26.89;73.61;100234.28;5014764;28;20406;-90
2023/08/21 10:11:40;;;;;;;3.80;2.60;;;;;;;26.73;71.83;100230.56;5014740;28;20022;-90
2023/08/21 10:14:07;;;;;;;3.10;2.80;;;;;;;26.65;73.44;100227.84;5014705;28;20040;-90
2023/08/21 10:16:33;;;;;;;4.20;2.70;;;;;;;26.60;72.74;100227.50;5014814;28;20033;-90
2023/08/21 10:19:05;;;;;;;3.28;2.90;;;;;;;26.41;70.69;100231.22;5014426;28;20155;-90
2023/08/21 10:21:37;;;;;;;2.95;2.35;;;;;;;26.32;72.70;100227.66;5014810;28;20037;-90
2023/08/21 10:24:02;;;;;;;4.78;2.33;;;;;;;26.21;70.64;100211.94;5014700;28;20021;-90
2023/08/21 10:26:28;;;;;;;2.38;2.15;;;;;;;26.13;70.63;100225.25;5014733;28;20396;-89
2023/08/21 10:28:59;;;;;;;3.45;2.22;;;;;;;26.16;73.44;100216.88;5014395;28;20040;-90
2023/08/21 10:31:30;;;;;;;2.97;2.67;;;;;;;25.98;72.62;100218.78;5014620;28;20120;-91
2023/08/21 10:33:57;;;;;;;3.97;2.70;;;;;;;25.87;74.34;100227.88;5014214;28;20044;-90
2023/08/21 10:36:44;;;;;;;3.35;2.30;;;;;;;25.91;74.73;100229.25;5014459;28;20033;-89
2023/08/21 10:39:14;;;;;;;2.83;2.55;;;;;;;25.93;74.31;100213.09;5014400;28;20029;-90
2023/08/21 10:41:40;;;;;;;2.88;2.40;;;;;;;26.10;73.81;100210.34;5013542;28;20054;-89
2023/08/21 10:44:06;;;;;;;3.25;2.67;;;;;;;26.27;73.45;100221.97;5014342;28;20033;-90
2023/08/21 10:46:49;;;;;;;4.72;2.95;;;;;;;26.45;71.52;100229.09;5014181;28;20033;-90
2023/08/21 10:49:15;;;;;;;2.65;2.40;;;;;;;26.62;71.78;100217.47;5014549;28;20128;-90
2023/08/21 10:51:42;;;;;;;3.03;2.53;;;;;;;26.75;71.79;100212.50;5014196;28;20135;-89
2023/08/21 10:54:12;;;;;;;4.35;2.40;;;;;;;27.05;73.21;100224.47;5014216;28;20187;-90
2023/08/21 10:56:38;;;;;;;2.83;2.63;;;;;;;27.27;71.35;100220.34;5014160;28;20040;-90
2023/08/21 10:59:03;;;;;;;2.88;2.63;;;;;;;27.38;69.80;100215.66;5031740;28;20033;-90
2023/08/21 11:01:44;;;;;;;3.10;2.80;;;;;;;27.40;70.14;100225.22;5014383;28;20068;-90
2023/08/21 11:04:09;;;;;;;2.80;2.58;;;;;;;27.43;70.41;100218.69;5014075;28;20052;-90
2023/08/21 11:06:36;;;;;;;3.97;2.63;;;;;;;27.44;70.66;100213.19;5014212;28;20025;-90
2023/08/21 11:09:03;;;;;;;3.10;2.80;;;;;;;27.40;69.61;100200.31;5013978;28;20042;-90